Devine, Texas
Current Conditions -  °F | °C
As of 11:15 AM on Thursday 23 Oct 2014 (Local Time) from KCVB Reporting Station
Clear Clear  
Wind Chill: 77°   Ceiling: Unl
Heat Index: 79°   Visibility: 10mi
Dew Point: 57°   Wind: 6mph
Humidity: 50%   Direction: 120°ESE
Pressure: 30.17"   Gusts: NA
Location:  29.14°N, 98.91°W
Report Text: KCVB 231615Z AUTO 12005KT 10SM CLR 25/14 A3017 RMK AO2 T02500140
Loading
Personal Weather Stations






























Interactive Weather Map New forecast layout! Learn more

10-Day Weather Forecast

Advertisements
Track Severe Weather on mobile